Terminal Aerodrome Forecast
Issued by NWS

Home | Current Version | Previous Version | Text Only | Print | Product List | Glossary On
Versions: 1 2 3 4 5 6 7 8 9 10 11 12 13 14 15 16 17 18 19 20 21
000
FTUS43 KMKX 262320
TAFENW
TAF
KENW 262320Z 2700/2724 24009KT P6SM OVC050
     FM270200 28007KT P6SM VCSH SCT020 OVC035
     FM270400 30007KT 4SM SHRA BR OVC020
     FM270800 32008KT 1 1/2SM SHRA BR OVC008
     FM271100 30009KT 6SM SHRA OVC010
     FM271200 29009KT 5SM SHRA OVC008
     FM271400 27012KT 4SM -SHRA BR OVC008
     FM271600 27015G23KT 6SM -SHRA OVC010
     FM271800 26015G23KT P6SM OVC015
     FM272000 25015G23KT P6SM BKN020=

USA.gov is the U.S. government's official web portal to all federal, state and local government web resources and services.